createdAt,value
2023-02-03T00:00:36.400Z,1.1
2023-02-03T00:01:46.077Z,1
2023-02-03T00:02:54.751Z,1
2023-02-03T00:04:04.250Z,0.8
2023-02-03T00:05:13.922Z,0.9
2023-02-03T00:06:22.590Z,0.9
2023-02-03T00:07:31.238Z,0.8
2023-02-03T00:08:40.910Z,1.1
2023-02-03T00:09:50.557Z,1.2
2023-02-03T00:11:00.224Z,1.1
2023-02-03T00:12:09.881Z,0.9
2023-02-03T00:13:18.616Z,1
2023-02-03T00:14:28.282Z,1.2
2023-02-03T00:15:37.960Z,1
2023-02-03T00:16:47.709Z,0.9
2023-02-03T00:17:57.318Z,1
2023-02-03T00:19:04.976Z,0.9
2023-02-03T00:20:14.645Z,1.1
2023-02-03T00:21:24.323Z,0.9
2023-02-03T00:22:31.975Z,1
2023-02-03T00:23:41.652Z,0.9
2023-02-03T00:24:50.310Z,1.1
2023-02-03T00:25:59.955Z,1.1
2023-02-03T00:27:09.653Z,1.1
2023-02-03T00:28:18.338Z,1.2
2023-02-03T00:29:27.977Z,1.3
2023-02-03T00:30:36.629Z,1.3
2023-02-03T00:31:45.374Z,1.2
2023-02-03T00:32:55.037Z,1.2
2023-02-03T00:34:03.687Z,1.3
2023-02-03T00:35:12.346Z,1.6
2023-02-03T00:36:22.373Z,1.6
2023-02-03T00:37:30.660Z,1.7
2023-02-03T00:38:40.401Z,1.4
2023-02-03T00:39:49.064Z,1.6
2023-02-03T00:40:57.728Z,1.3
2023-02-03T00:42:07.409Z,1.2
2023-02-03T00:43:16.068Z,1.2
2023-02-03T00:44:24.756Z,1.5
2023-02-03T00:45:34.496Z,1.3
2023-02-03T00:46:42.114Z,1.5
2023-02-03T00:47:51.789Z,1.3
2023-02-03T00:49:00.475Z,1.4
2023-02-03T00:50:09.130Z,1.4
2023-02-03T00:51:17.785Z,1.2
2023-02-03T00:52:27.454Z,1.3
2023-02-03T00:53:36.122Z,1.5
2023-02-03T00:54:45.788Z,1.5
2023-02-03T00:55:54.812Z,1.3
2023-02-03T00:57:03.471Z,1.5
2023-02-03T00:58:13.132Z,1.5
2023-02-03T00:59:20.791Z,1.5
2023-02-03T01:00:30.455Z,1.4
2023-02-03T01:01:40.184Z,2.2
2023-02-03T01:02:47.788Z,1.8
2023-02-03T01:03:57.477Z,1.6
2023-02-03T01:05:06.168Z,1.5
2023-02-03T01:06:15.804Z,1.7
2023-02-03T01:07:25.506Z,1.4
2023-02-03T01:08:35.158Z,1.6
2023-02-03T01:09:43.813Z,1.6
2023-02-03T01:10:53.479Z,1.6
2023-02-03T01:12:01.136Z,1.7
2023-02-03T01:13:10.849Z,1.8
2023-02-03T01:14:19.480Z,1.8
2023-02-03T01:15:28.154Z,1.8
2023-02-03T01:16:37.840Z,1.6
2023-02-03T01:17:46.495Z,1.6
2023-02-03T01:18:55.181Z,1.7
2023-02-03T01:20:04.906Z,1.8
2023-02-03T01:21:13.580Z,1.4
2023-02-03T01:22:23.214Z,1.9
2023-02-03T01:23:32.883Z,1.9
2023-02-03T01:24:41.571Z,2
2023-02-03T01:25:51.230Z,2.1
2023-02-03T01:27:00.898Z,1.8
2023-02-03T01:28:09.623Z,1.8
2023-02-03T01:29:19.215Z,1.7
2023-02-03T01:30:27.160Z,1.7
2023-02-03T01:31:36.599Z,1.7
2023-02-03T01:32:46.227Z,1.9
2023-02-03T01:33:54.880Z,2
2023-02-03T01:35:04.555Z,2
2023-02-03T01:36:14.334Z,1.9
2023-02-03T01:37:23.033Z,2
2023-02-03T01:38:32.715Z,1.7
2023-02-03T01:39:42.370Z,2.2
2023-02-03T01:40:51.012Z,1.6
2023-02-03T01:42:00.723Z,1.8
2023-02-03T01:43:09.373Z,1.9
2023-02-03T01:44:18.040Z,1.6
2023-02-03T01:45:26.694Z,1.9
2023-02-03T01:46:35.342Z,1.9
2023-02-03T01:47:44.081Z,1.7
2023-02-03T01:48:51.757Z,1.9
2023-02-03T01:50:01.467Z,2
2023-02-03T01:51:10.106Z,2.1
2023-02-03T01:52:19.782Z,1.8
2023-02-03T01:53:29.493Z,2
2023-02-03T01:54:38.176Z,1.8
2023-02-03T01:55:47.898Z,1.9
2023-02-03T01:56:57.557Z,1.9
2023-02-03T01:58:05.337Z,2
2023-02-03T01:59:15.023Z,1.8
2023-02-03T02:00:24.840Z,1.6
2023-02-03T02:01:33.456Z,1.9
2023-02-03T02:02:43.077Z,1.8
2023-02-03T02:03:51.719Z,1.7
2023-02-03T02:05:00.400Z,1.8
2023-02-03T02:06:10.067Z,1.8
2023-02-03T02:07:17.709Z,1.5
2023-02-03T02:08:27.384Z,1.8
2023-02-03T02:09:37.063Z,1.8
2023-02-03T02:10:46.729Z,1.9
2023-02-03T02:11:56.396Z,2.1
2023-02-03T02:13:06.058Z,2
2023-02-03T02:14:14.698Z,1.7
2023-02-03T02:15:24.353Z,1.6
2023-02-03T02:16:33.029Z,2.1
2023-02-03T02:17:42.711Z,1.8
2023-02-03T02:18:51.372Z,2.2
2023-02-03T02:20:00.049Z,2
2023-02-03T02:21:09.783Z,1.8
2023-02-03T02:22:17.511Z,2
2023-02-03T02:23:25.156Z,2
2023-02-03T02:24:34.810Z,2.2
2023-02-03T02:25:42.482Z,2.1
2023-02-03T02:26:52.126Z,2.5
2023-02-03T02:28:00.906Z,1.8
2023-02-03T02:29:09.524Z,2.3
2023-02-03T02:30:19.207Z,2.4
2023-02-03T02:31:25.965Z,1.9
2023-02-03T02:32:34.522Z,2.1
2023-02-03T02:33:44.196Z,2.3
2023-02-03T02:34:52.899Z,1.9
2023-02-03T02:36:02.559Z,2.2
2023-02-03T02:37:11.207Z,2.4
2023-02-03T02:38:19.867Z,1.8
2023-02-03T02:39:29.536Z,1.7
2023-02-03T02:40:39.200Z,1.7
2023-02-03T02:41:47.894Z,2.2
2023-02-03T02:42:57.533Z,2
2023-02-03T02:44:05.199Z,1.9
2023-02-03T02:45:13.926Z,1.7
2023-02-03T02:46:22.667Z,2
2023-02-03T02:47:30.271Z,1.8
2023-02-03T02:48:39.925Z,1.8
2023-02-03T02:49:49.588Z,2.3
2023-02-03T02:50:57.256Z,1.8
2023-02-03T02:52:06.929Z,1.7
2023-02-03T02:53:15.598Z,1.7
2023-02-03T02:54:23.219Z,1.8
2023-02-03T02:55:32.887Z,1.5
2023-02-03T02:56:42.571Z,1.9
2023-02-03T02:57:51.262Z,2
2023-02-03T02:59:00.939Z,1.8
2023-02-03T03:00:08.596Z,1.4
2023-02-03T03:01:18.295Z,1.9
2023-02-03T03:02:26.968Z,1.8
2023-02-03T03:03:35.684Z,1.6
2023-02-03T03:04:45.363Z,1.8
2023-02-03T03:05:54.032Z,1.5
2023-02-03T03:07:02.652Z,1.8
2023-02-03T03:08:12.316Z,1.7
2023-02-03T03:09:21.995Z,1.3
2023-02-03T03:10:31.643Z,1.4
2023-02-03T03:11:40.313Z,1.4
2023-02-03T03:12:49.010Z,1.4
2023-02-03T03:13:58.726Z,1.3
2023-02-03T03:15:08.353Z,1.4
2023-02-03T03:16:17.081Z,1.1
2023-02-03T03:17:26.670Z,1.3
2023-02-03T03:18:34.321Z,1.2
2023-02-03T03:19:43.986Z,1.4
2023-02-03T03:20:52.645Z,1.5
2023-02-03T03:22:00.299Z,1.5
2023-02-03T03:23:09.966Z,1.1
2023-02-03T03:24:17.617Z,1.3
2023-02-03T03:25:27.319Z,1.2
2023-02-03T03:26:36.981Z,1.1
2023-02-03T03:27:46.671Z,1.1
2023-02-03T03:28:56.956Z,1.1
2023-02-03T03:30:05.685Z,1.3
2023-02-03T03:31:15.465Z,1.2
2023-02-03T03:32:25.055Z,1.2
2023-02-03T03:33:33.713Z,0.9
2023-02-03T03:34:42.357Z,1.1
2023-02-03T03:35:52.060Z,1
2023-02-03T03:37:00.769Z,0.9
2023-02-03T03:38:10.449Z,0.9
2023-02-03T03:39:19.113Z,1.1
2023-02-03T03:40:28.049Z,1
2023-02-03T03:41:37.475Z,0.9
2023-02-03T03:42:45.137Z,0.8
2023-02-03T03:43:53.832Z,0.9
2023-02-03T03:45:03.490Z,0.8
2023-02-03T03:46:12.225Z,0.9
2023-02-03T03:47:21.833Z,0.9
2023-02-03T03:48:31.543Z,0.8
2023-02-03T03:49:39.212Z,0.8
2023-02-03T03:50:48.871Z,0.7
2023-02-03T03:51:57.565Z,0.8
2023-02-03T03:53:06.222Z,0.9
2023-02-03T03:54:14.899Z,0.8
2023-02-03T03:55:23.547Z,0.8
2023-02-03T03:56:33.215Z,0.8
2023-02-03T03:57:41.872Z,0.9
2023-02-03T03:58:50.546Z,0.8
2023-02-03T04:00:00.232Z,0.7
2023-02-03T04:01:09.929Z,0.7
2023-02-03T04:02:18.627Z,0.5
2023-02-03T04:03:28.261Z,0.8
2023-02-03T04:04:36.889Z,0.6
2023-02-03T04:05:46.560Z,0.8
2023-02-03T04:06:55.203Z,0.7
2023-02-03T04:08:02.862Z,0.7
2023-02-03T04:09:12.562Z,0.6
2023-02-03T04:10:22.244Z,0.7
2023-02-03T04:11:31.947Z,0.6
2023-02-03T04:12:41.617Z,0.8
2023-02-03T04:13:50.290Z,0.7
2023-02-03T04:14:59.959Z,0.7
2023-02-03T04:16:09.657Z,0.9
2023-02-03T04:17:19.307Z,0.8
2023-02-03T04:18:28.995Z,0.8
2023-02-03T04:19:37.633Z,0.6
2023-02-03T04:20:47.309Z,0.6
2023-02-03T04:21:56.967Z,0.8
2023-02-03T04:23:04.663Z,0.6
2023-02-03T04:24:14.322Z,0.8
2023-02-03T04:25:22.994Z,0.6
2023-02-03T04:26:31.635Z,0.8
2023-02-03T04:27:41.323Z,0.6
2023-02-03T04:28:49.974Z,0.6
2023-02-03T04:29:59.661Z,0.7
2023-02-03T04:31:09.954Z,0.6
2023-02-03T04:32:17.546Z,0.7
2023-02-03T04:33:27.227Z,0.8
2023-02-03T04:34:35.994Z,0.8
2023-02-03T04:35:44.625Z,0.6
2023-02-03T04:36:54.288Z,0.8
2023-02-03T04:38:01.966Z,0.7
2023-02-03T04:39:10.647Z,0.8
2023-02-03T04:40:20.347Z,0.8
2023-02-03T04:41:29.001Z,0.9
2023-02-03T04:42:38.741Z,0.8
2023-02-03T04:43:48.337Z,0.9
2023-02-03T04:44:58.004Z,1.1
2023-02-03T04:46:07.814Z,0.8
2023-02-03T04:47:16.348Z,1
2023-02-03T04:48:25.036Z,0.7
2023-02-03T04:49:34.713Z,1
2023-02-03T04:50:44.402Z,1.1
2023-02-03T04:51:53.083Z,1
2023-02-03T04:53:02.750Z,0.9
2023-02-03T04:54:12.421Z,1
2023-02-03T04:55:22.077Z,0.9
2023-02-03T04:56:31.737Z,1
2023-02-03T04:57:39.452Z,0.7
2023-02-03T04:58:49.114Z,0.8
2023-02-03T04:59:57.836Z,0.9
2023-02-03T05:01:06.557Z,0.8
2023-02-03T05:02:16.173Z,0.8
2023-02-03T05:03:26.183Z,0.8
2023-02-03T05:04:34.509Z,1.1
2023-02-03T05:05:44.175Z,1.1
2023-02-03T05:06:51.875Z,0.7
2023-02-03T05:08:01.513Z,0.8
2023-02-03T05:09:10.196Z,0.8
2023-02-03T05:10:17.846Z,0.9
2023-02-03T05:11:27.512Z,1
2023-02-03T05:12:36.221Z,1.1
2023-02-03T05:13:44.861Z,0.9
2023-02-03T05:14:54.560Z,0.9
2023-02-03T05:16:03.289Z,1
2023-02-03T05:17:12.906Z,0.8
2023-02-03T05:18:21.568Z,0.9
2023-02-03T05:19:29.208Z,1.1
2023-02-03T05:20:38.901Z,0.8
2023-02-03T05:21:48.580Z,0.9
2023-02-03T05:22:57.259Z,1
2023-02-03T05:24:06.930Z,0.7
2023-02-03T05:25:14.603Z,0.8
2023-02-03T05:26:23.286Z,0.8
2023-02-03T05:27:32.991Z,0.9
2023-02-03T05:28:40.651Z,0.6
2023-02-03T05:29:50.320Z,0.5
2023-02-03T05:31:00.170Z,0.7
2023-02-03T05:32:08.854Z,0.7
2023-02-03T05:33:18.438Z,0.5
2023-02-03T05:34:26.152Z,0.6
2023-02-03T05:35:35.841Z,0.6
2023-02-03T05:36:44.485Z,0.8
2023-02-03T05:37:54.225Z,0.7
2023-02-03T05:39:03.964Z,0.6
2023-02-03T05:40:11.593Z,0.7
2023-02-03T05:41:20.250Z,0.6
2023-02-03T05:42:29.933Z,0.7
2023-02-03T05:43:39.665Z,0.7
2023-02-03T05:44:48.341Z,0.6
2023-02-03T05:45:58.178Z,0.7
2023-02-03T05:47:06.755Z,0.6
2023-02-03T05:48:16.397Z,0.7
2023-02-03T05:49:24.115Z,0.6
2023-02-03T05:50:32.766Z,0.7
2023-02-03T05:51:42.453Z,0.6
2023-02-03T05:52:52.136Z,0.6
2023-02-03T05:54:01.808Z,0.7
2023-02-03T05:55:10.520Z,0.6
2023-02-03T05:56:20.199Z,0.8
2023-02-03T05:57:32.159Z,0.8
2023-02-03T05:58:38.576Z,0.7
2023-02-03T05:59:47.338Z,0.7
2023-02-03T06:00:57.055Z,0.7
2023-02-03T06:02:04.739Z,0.7
2023-02-03T06:03:14.659Z,0.7
2023-02-03T06:04:23.347Z,0.6
2023-02-03T06:05:31.045Z,0.7
2023-02-03T06:06:40.770Z,0.7
2023-02-03T06:07:49.534Z,0.6
2023-02-03T06:08:58.276Z,0.6
2023-02-03T06:10:07.960Z,0.6
2023-02-03T06:11:17.630Z,0.6
2023-02-03T06:12:29.085Z,0.7
2023-02-03T06:13:35.999Z,0.4
2023-02-03T06:14:44.709Z,0.7
2023-02-03T06:15:54.409Z,0.9
2023-02-03T06:17:02.105Z,0.8
2023-02-03T06:18:09.773Z,0.7
2023-02-03T06:19:19.549Z,0.8
2023-02-03T06:20:27.658Z,0.6
2023-02-03T06:21:36.964Z,0.7
2023-02-03T06:22:45.656Z,0.6
2023-02-03T06:23:53.397Z,0.6
2023-02-03T06:25:03.137Z,0.7
2023-02-03T06:26:12.811Z,0.8
2023-02-03T06:27:21.620Z,0.8
2023-02-03T06:28:30.269Z,0.8
2023-02-03T06:29:39.948Z,0.7
2023-02-03T06:30:49.762Z,0.6
2023-02-03T06:31:59.468Z,0.7
2023-02-03T06:33:07.011Z,0.7
2023-02-03T06:34:16.668Z,0.6
2023-02-03T06:35:25.362Z,1
2023-02-03T06:36:34.062Z,0.7
2023-02-03T06:37:42.741Z,0.8
2023-02-03T06:38:51.396Z,0.8
2023-02-03T06:40:00.141Z,0.8
2023-02-03T06:41:08.877Z,0.5
2023-02-03T06:42:17.554Z,0.8
2023-02-03T06:43:27.240Z,0.7
2023-02-03T06:44:36.907Z,0.7
2023-02-03T06:45:45.636Z,0.6
2023-02-03T06:46:55.354Z,0.7
2023-02-03T06:48:05.155Z,0.8
2023-02-03T06:49:13.871Z,0.6
2023-02-03T06:50:23.600Z,0.7
2023-02-03T06:51:31.234Z,0.6
2023-02-03T06:52:39.930Z,0.8
2023-02-03T06:53:49.627Z,0.8
2023-02-03T06:54:58.295Z,0.9
2023-02-03T06:56:09.005Z,0.6
2023-02-03T06:57:18.713Z,0.7
2023-02-03T06:58:27.422Z,0.6
2023-02-03T06:59:37.128Z,0.5
2023-02-03T07:00:45.783Z,0.6
2023-02-03T07:01:54.484Z,0.7
2023-02-03T07:03:04.291Z,0.7
2023-02-03T07:04:12.864Z,0.7
2023-02-03T07:05:22.539Z,0.7
2023-02-03T07:06:32.201Z,0.7
2023-02-03T07:07:40.893Z,0.7
2023-02-03T07:08:50.559Z,0.8
2023-02-03T07:09:58.232Z,0.8
2023-02-03T07:11:07.915Z,0.8
2023-02-03T07:12:17.570Z,0.8
2023-02-03T07:13:26.244Z,0.5
2023-02-03T07:14:35.944Z,0.7
2023-02-03T07:15:45.740Z,0.7
2023-02-03T07:16:54.430Z,0.8
2023-02-03T07:18:04.049Z,0.7
2023-02-03T07:19:13.764Z,0.7
2023-02-03T07:20:22.428Z,0.7
2023-02-03T07:21:32.083Z,0.6
2023-02-03T07:22:40.787Z,0.8
2023-02-03T07:23:49.432Z,0.9
2023-02-03T07:24:58.122Z,0.7
2023-02-03T07:26:06.844Z,0.7
2023-02-03T07:27:16.585Z,0.7
2023-02-03T07:28:25.269Z,0.9
2023-02-03T07:29:33.961Z,0.7
2023-02-03T07:30:43.838Z,0.7
2023-02-03T07:31:52.554Z,0.9
2023-02-03T07:33:02.139Z,1
2023-02-03T07:34:10.937Z,0.9
2023-02-03T07:35:18.554Z,0.8
2023-02-03T07:36:28.237Z,0.8
2023-02-03T07:37:36.896Z,1.2
2023-02-03T07:38:45.588Z,1.2
2023-02-03T07:39:55.245Z,1.2
2023-02-03T07:41:03.967Z,1.3
2023-02-03T07:42:13.625Z,1.6
2023-02-03T07:43:22.288Z,1.9
2023-02-03T07:44:30.012Z,1.8
2023-02-03T07:45:39.689Z,2.1
2023-02-03T07:46:49.470Z,2.4
2023-02-03T07:47:59.094Z,2.3
2023-02-03T07:49:08.774Z,2.4
2023-02-03T07:50:17.477Z,2.4
2023-02-03T07:51:27.151Z,2.5
2023-02-03T07:52:34.836Z,2.5
2023-02-03T07:53:43.527Z,2.4
2023-02-03T07:54:53.198Z,2.3
2023-02-03T07:56:02.943Z,2.3
2023-02-03T07:57:12.591Z,2.1
2023-02-03T07:58:22.290Z,1.6
2023-02-03T07:59:30.979Z,1.3
2023-02-03T08:00:40.661Z,1.2
2023-02-03T08:01:50.393Z,0.9
2023-02-03T08:03:00.050Z,0.7
2023-02-03T08:04:09.799Z,0.8
2023-02-03T08:05:17.571Z,0.6
2023-02-03T08:06:27.190Z,0.6
2023-02-03T08:07:37.239Z,0.5
2023-02-03T08:08:45.967Z,0.6
2023-02-03T08:09:55.634Z,0.7
2023-02-03T08:11:04.313Z,0.6
2023-02-03T08:12:13.986Z,0.7
2023-02-03T08:13:23.930Z,0.6
2023-02-03T08:14:32.601Z,0.5
2023-02-03T08:15:42.310Z,0.5
2023-02-03T08:16:52.011Z,0.5
2023-02-03T08:18:00.654Z,0.5
2023-02-03T08:19:10.366Z,0.6
2023-02-03T08:20:19.094Z,0.8
2023-02-03T08:21:28.741Z,0.6
2023-02-03T08:22:39.396Z,0.6
2023-02-03T08:23:49.110Z,0.7
2023-02-03T08:24:58.857Z,0.6
2023-02-03T08:26:08.550Z,0.4
2023-02-03T08:27:16.212Z,0.7
2023-02-03T08:28:25.874Z,0.7
2023-02-03T08:29:34.560Z,0.6
2023-02-03T08:30:43.238Z,0.4
2023-02-03T08:31:53.069Z,0.5
2023-02-03T08:33:02.616Z,0.7
2023-02-03T08:34:12.284Z,0.7
2023-02-03T08:35:22.037Z,0.6
2023-02-03T08:36:30.796Z,0.8
2023-02-03T08:37:40.493Z,0.7
2023-02-03T08:38:49.168Z,0.8
2023-02-03T08:39:58.837Z,0.6
2023-02-03T08:41:08.517Z,0.9
2023-02-03T08:42:17.226Z,0.7
2023-02-03T08:43:25.916Z,0.6
2023-02-03T08:44:34.621Z,0.7
2023-02-03T08:45:44.356Z,0.8
2023-02-03T08:46:52.947Z,0.7
2023-02-03T08:48:02.668Z,0.8
2023-02-03T08:49:12.360Z,0.7
2023-02-03T08:50:21.107Z,1
2023-02-03T08:51:30.904Z,1.2
2023-02-03T08:52:40.552Z,1.2
2023-02-03T08:53:48.216Z,0.8
2023-02-03T08:54:57.927Z,1.3
2023-02-03T08:56:06.601Z,2
2023-02-03T08:57:15.249Z,1.8
2023-02-03T08:58:23.944Z,2.7
2023-02-03T08:59:33.641Z,2
2023-02-03T09:00:42.415Z,1.4
2023-02-03T09:01:51.001Z,0.9
2023-02-03T09:02:59.647Z,0.8
2023-02-03T09:04:09.415Z,1
2023-02-03T09:05:18.177Z,1.1
2023-02-03T09:06:26.849Z,1.2
2023-02-03T09:07:36.567Z,1
2023-02-03T09:08:46.200Z,1
2023-02-03T09:09:55.883Z,0.9
2023-02-03T09:11:05.578Z,1
2023-02-03T09:12:14.270Z,0.8
2023-02-03T09:13:23.950Z,0.7
2023-02-03T09:14:33.644Z,0.6
2023-02-03T09:15:42.308Z,0.9
2023-02-03T09:16:52.079Z,0.7
2023-02-03T09:18:01.705Z,0.9
2023-02-03T09:19:11.398Z,0.8
2023-02-03T09:20:21.156Z,0.9
2023-02-03T09:21:33.056Z,0.8
2023-02-03T09:22:40.573Z,0.7
2023-02-03T09:23:50.224Z,0.6
2023-02-03T09:24:58.893Z,0.6
2023-02-03T09:26:07.560Z,0.9
2023-02-03T09:27:17.220Z,0.8
2023-02-03T09:28:25.910Z,1
2023-02-03T09:29:35.670Z,0.8
2023-02-03T09:30:44.453Z,1
2023-02-03T09:31:53.232Z,0.9
2023-02-03T09:33:02.703Z,0.9
2023-02-03T09:34:11.411Z,0.7
2023-02-03T09:35:20.155Z,0.6
2023-02-03T09:36:29.791Z,0.4
2023-02-03T09:37:39.437Z,0.6
2023-02-03T09:38:49.279Z,0.4
2023-02-03T09:39:57.843Z,0.6
2023-02-03T09:41:11.462Z,0.7
2023-02-03T09:42:17.203Z,0.8
2023-02-03T09:43:25.877Z,1
2023-02-03T09:44:35.549Z,0.9
2023-02-03T09:45:45.261Z,0.9
2023-02-03T09:46:52.939Z,0.8
2023-02-03T09:48:02.684Z,0.9
2023-02-03T09:49:11.376Z,0.7
2023-02-03T09:50:20.059Z,0.8
2023-02-03T09:51:29.776Z,0.7
2023-02-03T09:52:37.461Z,0.8
2023-02-03T09:53:46.139Z,0.9
2023-02-03T09:54:55.848Z,0.8
2023-02-03T09:56:04.526Z,0.7
2023-02-03T09:57:14.219Z,0.6
2023-02-03T09:58:23.921Z,0.7
2023-02-03T09:59:31.557Z,0.8
2023-02-03T10:00:41.260Z,0.7
2023-02-03T10:01:50.959Z,0.7
2023-02-03T10:02:59.715Z,0.7
2023-02-03T10:04:09.319Z,0.7
2023-02-03T10:05:18.063Z,0.5
2023-02-03T10:06:27.775Z,0.5
2023-02-03T10:07:37.424Z,0.7
2023-02-03T10:08:46.330Z,0.6
2023-02-03T10:09:56.012Z,0.6
2023-02-03T10:11:04.742Z,0.6
2023-02-03T10:12:14.403Z,0.4
2023-02-03T10:13:24.075Z,0.4
2023-02-03T10:14:31.795Z,0.3
2023-02-03T10:15:41.452Z,0.4
2023-02-03T10:16:51.185Z,0.3
2023-02-03T10:17:59.857Z,0.4
2023-02-03T10:19:09.532Z,0.4
2023-02-03T10:20:17.255Z,0.5
2023-02-03T10:21:26.934Z,0.8
2023-02-03T10:22:36.598Z,0.5
2023-02-03T10:23:45.291Z,0.5
2023-02-03T10:24:54.982Z,0.6
2023-02-03T10:26:04.749Z,0.3
2023-02-03T10:27:14.440Z,0.4
2023-02-03T10:28:24.089Z,0.4
2023-02-03T10:29:31.744Z,0.4
2023-02-03T10:30:41.456Z,0.4
2023-02-03T10:31:51.258Z,0.4
2023-02-03T10:32:58.856Z,0.7
2023-02-03T10:34:08.549Z,0.4
2023-02-03T10:35:17.189Z,0.5
2023-02-03T10:36:26.889Z,0.5
2023-02-03T10:37:36.654Z,0.5
2023-02-03T10:38:45.327Z,0.4
2023-02-03T10:39:54.966Z,0.6
2023-02-03T10:41:04.664Z,0.6
2023-02-03T10:42:13.313Z,0.4
2023-02-03T10:43:23.044Z,0.6
2023-02-03T10:44:31.697Z,0.6
2023-02-03T10:45:40.399Z,0.5
2023-02-03T10:46:50.081Z,0.7
2023-02-03T10:47:59.778Z,0.7
2023-02-03T10:49:09.666Z,0.7
2023-02-03T10:50:19.317Z,0.6
2023-02-03T10:51:27.989Z,0.4
2023-02-03T10:52:37.656Z,0.4
2023-02-03T10:53:46.342Z,0.3
2023-02-03T10:54:54.046Z,0.4
2023-02-03T10:56:02.710Z,0.4
2023-02-03T10:57:11.418Z,0.5
2023-02-03T10:58:20.098Z,0.3
2023-02-03T10:59:29.779Z,0.3
2023-02-03T11:00:38.443Z,0.6
2023-02-03T11:01:48.302Z,0.6
2023-02-03T11:02:58.056Z,0.6
2023-02-03T11:04:05.604Z,0.5
2023-02-03T11:05:15.269Z,0.5
2023-02-03T11:06:22.982Z,0.5
2023-02-03T11:07:31.638Z,0.4
2023-02-03T11:08:41.304Z,0.5
2023-02-03T11:09:48.965Z,0.5
2023-02-03T11:10:58.720Z,0.4
2023-02-03T11:12:08.401Z,0.4
2023-02-03T11:13:16.087Z,0.4
2023-02-03T11:14:25.779Z,0.3
2023-02-03T11:15:35.487Z,0.4
2023-02-03T11:16:45.157Z,0.4
2023-02-03T11:17:54.873Z,0.6
2023-02-03T11:19:04.557Z,0.5
2023-02-03T11:20:12.220Z,0.6
2023-02-03T11:21:21.920Z,0.7
2023-02-03T11:22:29.596Z,1
2023-02-03T11:23:38.349Z,0.7
2023-02-03T11:24:48.033Z,0.8
2023-02-03T11:25:56.704Z,0.8
2023-02-03T11:27:06.389Z,1
2023-02-03T11:28:15.127Z,0.9
2023-02-03T11:29:24.798Z,0.8
2023-02-03T11:30:34.482Z,0.8
2023-02-03T11:31:44.387Z,0.8
2023-02-03T11:32:52.887Z,0.8
2023-02-03T11:34:02.577Z,0.8
2023-02-03T11:35:11.285Z,0.8
2023-02-03T11:36:21.007Z,0.8
2023-02-03T11:37:29.729Z,0.7
2023-02-03T11:38:37.317Z,0.6
2023-02-03T11:39:47.006Z,0.8
2023-02-03T11:40:54.744Z,0.8
2023-02-03T11:42:05.412Z,1
2023-02-03T11:43:15.076Z,0.8
2023-02-03T11:44:23.742Z,0.8
2023-02-03T11:45:33.429Z,0.8
2023-02-03T11:46:43.154Z,1.1
2023-02-03T11:47:52.819Z,0.8
2023-02-03T11:49:02.458Z,0.9
2023-02-03T11:50:11.164Z,1
2023-02-03T11:51:20.872Z,0.8
2023-02-03T11:52:30.614Z,0.9
2023-02-03T11:53:55.111Z,0.8
2023-02-03T11:54:50.907Z,0.5
2023-02-03T11:56:01.561Z,0.6
2023-02-03T11:57:11.229Z,0.7
2023-02-03T11:58:20.969Z,0.5
2023-02-03T11:59:28.621Z,0.4
2023-02-03T12:00:37.315Z,0.3
2023-02-03T12:01:47.011Z,0.6
2023-02-03T12:02:55.754Z,0.5
2023-02-03T12:04:05.412Z,0.7
2023-02-03T12:05:15.137Z,0.5
2023-02-03T12:06:22.783Z,0.5
2023-02-03T12:07:33.442Z,0.6
2023-02-03T12:08:41.112Z,0.5
2023-02-03T12:09:49.808Z,0.5
2023-02-03T12:10:59.483Z,0.6
2023-02-03T12:12:07.188Z,0.4
2023-02-03T12:13:16.848Z,0.4
2023-02-03T12:14:25.557Z,0.7
2023-02-03T12:15:33.303Z,0.4
2023-02-03T12:16:43.018Z,0.5
2023-02-03T12:17:51.748Z,0.5
2023-02-03T12:19:00.438Z,0.5
2023-02-03T12:20:10.076Z,0.6
2023-02-03T12:21:16.750Z,0.5
2023-02-03T12:22:26.480Z,0.7
2023-02-03T12:23:35.180Z,0.7
2023-02-03T12:24:42.891Z,0.7
2023-02-03T12:25:52.616Z,0.7
2023-02-03T12:27:00.377Z,0.9
2023-02-03T12:28:10.674Z,0.7
2023-02-03T12:29:20.627Z,1.1
2023-02-03T12:30:29.761Z,1
2023-02-03T12:31:39.049Z,0.9
2023-02-03T12:32:47.752Z,1
2023-02-03T12:33:57.419Z,0.9
2023-02-03T12:35:07.145Z,1
2023-02-03T12:36:15.794Z,1
2023-02-03T12:37:25.463Z,1.3
2023-02-03T12:38:35.170Z,0.9
2023-02-03T12:39:42.843Z,0.9
2023-02-03T12:40:52.517Z,1
2023-02-03T12:42:01.202Z,0.8
2023-02-03T12:43:09.895Z,1
2023-02-03T12:44:18.806Z,0.8
2023-02-03T12:45:28.468Z,0.9
2023-02-03T12:46:38.161Z,0.8
2023-02-03T12:47:49.404Z,1.3
2023-02-03T12:48:56.530Z,1
2023-02-03T12:50:06.247Z,1
2023-02-03T12:51:15.972Z,0.8
2023-02-03T12:52:23.623Z,1
2023-02-03T12:53:33.302Z,1
2023-02-03T12:54:42.993Z,1.1
2023-02-03T12:55:51.714Z,0.9
2023-02-03T12:57:01.410Z,0.7
2023-02-03T12:58:10.144Z,0.6
2023-02-03T12:59:19.819Z,0.6
2023-02-03T13:00:28.823Z,0.5
2023-02-03T13:01:38.228Z,0.5
2023-02-03T13:02:47.907Z,0.5
2023-02-03T13:03:56.574Z,0.6
2023-02-03T13:05:06.224Z,0.5
2023-02-03T13:06:15.899Z,0.6
2023-02-03T13:07:24.614Z,0.7
2023-02-03T13:08:34.261Z,0.6
2023-02-03T13:09:43.004Z,0.9
2023-02-03T13:10:52.695Z,0.7
2023-02-03T13:12:02.373Z,0.8
2023-02-03T13:13:10.052Z,0.9
2023-02-03T13:14:19.771Z,0.9
2023-02-03T13:15:28.453Z,1.2
2023-02-03T13:16:38.180Z,1
2023-02-03T13:17:46.878Z,1
2023-02-03T13:18:56.607Z,1.1
2023-02-03T13:20:05.297Z,1.2
2023-02-03T13:21:13.953Z,1.1
2023-02-03T13:22:23.599Z,1.1
2023-02-03T13:23:33.316Z,1
2023-02-03T13:24:42.973Z,1.3
2023-02-03T13:25:51.623Z,1.2
2023-02-03T13:27:00.324Z,1.1
2023-02-03T13:28:10.024Z,1
2023-02-03T13:29:17.643Z,0.5
2023-02-03T13:30:26.678Z,0.5
2023-02-03T13:31:36.182Z,0.4
2023-02-03T13:32:44.735Z,0.4
2023-02-03T13:33:54.456Z,0.6
2023-02-03T13:35:02.182Z,0.7
2023-02-03T13:36:10.842Z,0.5
2023-02-03T13:37:21.111Z,0.5
2023-02-03T13:38:29.831Z,0.7
2023-02-03T13:39:38.584Z,0.6
2023-02-03T13:40:49.211Z,0.6
2023-02-03T13:41:56.921Z,0.6
2023-02-03T13:43:06.586Z,0.6
2023-02-03T13:44:15.271Z,0.4
2023-02-03T13:45:23.950Z,0.7
2023-02-03T13:46:33.704Z,0.5
2023-02-03T13:47:41.401Z,0.5
2023-02-03T13:48:51.076Z,0.5
2023-02-03T13:50:00.773Z,0.5
2023-02-03T13:51:09.467Z,0.5
2023-02-03T13:52:19.163Z,0.4
2023-02-03T13:53:27.881Z,0.4
2023-02-03T13:54:35.550Z,0.4
2023-02-03T13:55:45.247Z,0.3
2023-02-03T13:56:53.899Z,0.3
2023-02-03T13:58:03.728Z,0.6
2023-02-03T13:59:13.520Z,0.5
2023-02-03T14:00:22.218Z,0.6
2023-02-03T14:01:31.959Z,0.5
2023-02-03T14:02:41.702Z,0.6
2023-02-03T14:03:51.434Z,0.6
2023-02-03T14:05:01.345Z,0.7
2023-02-03T14:06:08.986Z,0.8
2023-02-03T14:07:18.716Z,0.7
2023-02-03T14:08:28.404Z,0.8
2023-02-03T14:09:36.067Z,0.9
2023-02-03T14:10:45.756Z,0.9
2023-02-03T14:11:55.468Z,0.8
2023-02-03T14:13:05.182Z,0.8
2023-02-03T14:14:14.853Z,0.6
2023-02-03T14:15:23.545Z,0.9
2023-02-03T14:16:32.223Z,0.9
2023-02-03T14:17:40.878Z,0.7
2023-02-03T14:18:49.563Z,0.8
2023-02-03T14:19:59.236Z,0.7
2023-02-03T14:21:08.916Z,0.8
2023-02-03T14:22:17.684Z,0.6
2023-02-03T14:23:27.337Z,0.7
2023-02-03T14:24:37.009Z,0.7
2023-02-03T14:25:46.681Z,0.6
2023-02-03T14:26:56.382Z,0.9
2023-02-03T14:28:05.174Z,0.6
2023-02-03T14:29:14.857Z,0.6
2023-02-03T14:30:24.557Z,0.6
2023-02-03T14:31:33.358Z,0.6
2023-02-03T14:32:42.902Z,0.6
2023-02-03T14:33:50.611Z,0.7
2023-02-03T14:35:00.293Z,0.5
2023-02-03T14:36:09.997Z,0.5
2023-02-03T14:37:18.663Z,0.5
2023-02-03T14:38:27.334Z,0.6
2023-02-03T14:39:36.040Z,0.5
2023-02-03T14:40:45.730Z,0.6
2023-02-03T14:41:55.404Z,0.5
2023-02-03T14:43:10.385Z,0.4
2023-02-03T14:44:15.724Z,0.5
2023-02-03T14:45:24.458Z,0.7
2023-02-03T14:46:33.158Z,0.5
2023-02-03T14:47:42.828Z,0.4
2023-02-03T14:48:52.486Z,0.5
2023-02-03T14:50:00.157Z,0.5
2023-02-03T14:51:09.895Z,0.4
2023-02-03T14:52:19.610Z,0.5
2023-02-03T14:53:28.291Z,0.4
2023-02-03T14:54:37.948Z,0.5
2023-02-03T14:55:46.654Z,0.5
2023-02-03T14:56:55.398Z,0.8
2023-02-03T14:58:04.052Z,0.5
2023-02-03T14:59:11.770Z,0.5
2023-02-03T15:00:21.483Z,0.7
2023-02-03T15:01:29.259Z,0.6
2023-02-03T15:02:37.858Z,0.6
2023-02-03T15:03:47.616Z,0.5
2023-02-03T15:04:56.323Z,0.6
2023-02-03T15:06:05.944Z,0.5
2023-02-03T15:07:15.690Z,0.6
2023-02-03T15:08:24.377Z,0.6
2023-02-03T15:09:34.051Z,0.7
2023-02-03T15:10:41.758Z,0.7
2023-02-03T15:11:51.411Z,0.6
2023-02-03T15:13:01.065Z,0.6
2023-02-03T15:14:09.774Z,0.7
2023-02-03T15:15:17.438Z,0.7
2023-02-03T15:16:27.170Z,0.6
2023-02-03T15:17:35.799Z,0.7
2023-02-03T15:18:45.460Z,0.8
2023-02-03T15:19:55.160Z,0.9
2023-02-03T15:21:03.862Z,0.7
2023-02-03T15:22:13.530Z,0.7
2023-02-03T15:23:22.196Z,0.7
2023-02-03T15:24:29.860Z,0.8
2023-02-03T15:25:39.553Z,0.8
2023-02-03T15:26:48.209Z,0.8
2023-02-03T15:27:57.939Z,0.7
2023-02-03T15:29:07.569Z,0.7
2023-02-03T15:30:15.267Z,0.6
2023-02-03T15:31:25.060Z,0.6
2023-02-03T15:32:34.653Z,0.6
2023-02-03T15:33:44.305Z,0.6
2023-02-03T15:34:54.141Z,0.7
2023-02-03T15:36:03.820Z,0.6
2023-02-03T15:37:13.520Z,0.8
2023-02-03T15:38:23.187Z,0.7
2023-02-03T15:39:31.867Z,0.4
2023-02-03T15:40:41.583Z,0.6
2023-02-03T15:41:50.282Z,0.7
2023-02-03T15:42:58.999Z,0.5
2023-02-03T15:44:08.671Z,0.5
2023-02-03T15:45:17.330Z,0.6
2023-02-03T15:46:26.101Z,0.7
2023-02-03T15:47:35.704Z,0.6
2023-02-03T15:48:45.420Z,0.6
2023-02-03T15:49:55.099Z,0.9
2023-02-03T15:51:04.845Z,0.6
2023-02-03T15:52:13.487Z,0.8
2023-02-03T15:53:24.179Z,0.7
2023-02-03T15:54:31.929Z,1
2023-02-03T15:55:41.631Z,0.7
2023-02-03T15:56:51.340Z,1.6